sensor_id;sensor_type;location;lat;lon;timestamp;P1;durP1;ratioP1;P2;durP2;ratioP2
48367;SDS011;34173;47.446;18.912;2023-01-16T00:01:55;26.48;;;13.85;;
48367;SDS011;34173;47.446;18.912;2023-01-16T00:04:24;26.48;;;15.13;;
48367;SDS011;34173;47.446;18.912;2023-01-16T00:06:52;27.77;;;15.80;;
48367;SDS011;34173;47.446;18.912;2023-01-16T00:09:19;24.98;;;14.40;;
48367;SDS011;34173;47.446;18.912;2023-01-16T00:11:47;22.80;;;14.02;;
48367;SDS011;34173;47.446;18.912;2023-01-16T00:14:15;27.25;;;15.35;;
48367;SDS011;34173;47.446;18.912;2023-01-16T00:16:42;23.27;;;12.52;;
48367;SDS011;34173;47.446;18.912;2023-01-16T00:19:10;26.30;;;14.75;;
48367;SDS011;34173;47.446;18.912;2023-01-16T00:21:37;29.05;;;15.50;;
48367;SDS011;34173;47.446;18.912;2023-01-16T00:24:05;26.83;;;15.35;;
48367;SDS011;34173;47.446;18.912;2023-01-16T00:26:35;27.98;;;14.05;;
48367;SDS011;34173;47.446;18.912;2023-01-16T00:29:03;27.92;;;15.15;;
48367;SDS011;34173;47.446;18.912;2023-01-16T00:31:30;27.67;;;14.98;;
48367;SDS011;34173;47.446;18.912;2023-01-16T00:33:58;32.13;;;17.50;;
48367;SDS011;34173;47.446;18.912;2023-01-16T00:36:26;28.90;;;13.23;;
48367;SDS011;34173;47.446;18.912;2023-01-16T00:38:53;22.02;;;12.57;;
48367;SDS011;34173;47.446;18.912;2023-01-16T00:41:23;26.70;;;13.48;;
48367;SDS011;34173;47.446;18.912;2023-01-16T00:43:50;24.95;;;13.32;;
48367;SDS011;34173;47.446;18.912;2023-01-16T00:46:19;23.20;;;13.82;;
48367;SDS011;34173;47.446;18.912;2023-01-16T00:48:46;25.08;;;13.80;;
48367;SDS011;34173;47.446;18.912;2023-01-16T00:51:14;29.40;;;14.45;;
48367;SDS011;34173;47.446;18.912;2023-01-16T00:53:41;28.73;;;14.57;;
48367;SDS011;34173;47.446;18.912;2023-01-16T00:56:09;28.83;;;14.23;;
48367;SDS011;34173;47.446;18.912;2023-01-16T00:58:37;27.13;;;14.18;;
48367;SDS011;34173;47.446;18.912;2023-01-16T01:01:05;26.45;;;14.05;;
48367;SDS011;34173;47.446;18.912;2023-01-16T01:03:33;31.80;;;15.68;;
48367;SDS011;34173;47.446;18.912;2023-01-16T01:06:04;29.10;;;14.87;;
48367;SDS011;34173;47.446;18.912;2023-01-16T01:08:33;26.55;;;15.10;;
48367;SDS011;34173;47.446;18.912;2023-01-16T01:11:08;23.77;;;12.70;;
48367;SDS011;34173;47.446;18.912;2023-01-16T01:13:36;28.05;;;15.38;;
48367;SDS011;34173;47.446;18.912;2023-01-16T01:16:04;27.23;;;14.63;;
48367;SDS011;34173;47.446;18.912;2023-01-16T01:18:32;28.12;;;14.95;;
48367;SDS011;34173;47.446;18.912;2023-01-16T01:21:18;28.65;;;15.57;;
48367;SDS011;34173;47.446;18.912;2023-01-16T01:23:45;30.15;;;14.82;;
48367;SDS011;34173;47.446;18.912;2023-01-16T01:26:15;31.10;;;15.75;;
48367;SDS011;34173;47.446;18.912;2023-01-16T01:28:43;27.60;;;15.00;;
48367;SDS011;34173;47.446;18.912;2023-01-16T01:31:11;24.50;;;13.27;;
48367;SDS011;34173;47.446;18.912;2023-01-16T01:33:39;25.85;;;14.48;;
48367;SDS011;34173;47.446;18.912;2023-01-16T01:36:07;25.37;;;15.20;;
48367;SDS011;34173;47.446;18.912;2023-01-16T01:38:35;26.55;;;14.75;;
48367;SDS011;34173;47.446;18.912;2023-01-16T01:41:03;30.45;;;15.18;;
48367;SDS011;34173;47.446;18.912;2023-01-16T01:46:13;32.35;;;15.80;;
48367;SDS011;34173;47.446;18.912;2023-01-16T01:48:46;32.75;;;16.80;;
48367;SDS011;34173;47.446;18.912;2023-01-16T01:51:18;30.80;;;15.60;;
48367;SDS011;34173;47.446;18.912;2023-01-16T01:54:20;29.50;;;15.35;;
48367;SDS011;34173;47.446;18.912;2023-01-16T01:56:51;32.53;;;13.73;;
48367;SDS011;34173;47.446;18.912;2023-01-16T01:59:24;29.75;;;13.93;;
48367;SDS011;34173;47.446;18.912;2023-01-16T02:01:54;29.67;;;13.68;;
48367;SDS011;34173;47.446;18.912;2023-01-16T02:04:24;28.55;;;13.85;;
48367;SDS011;34173;47.446;18.912;2023-01-16T02:06:55;31.73;;;13.85;;
48367;SDS011;34173;47.446;18.912;2023-01-16T02:09:25;29.83;;;13.68;;
48367;SDS011;34173;47.446;18.912;2023-01-16T02:11:56;26.45;;;13.43;;
48367;SDS011;34173;47.446;18.912;2023-01-16T02:14:30;24.52;;;11.75;;
48367;SDS011;34173;47.446;18.912;2023-01-16T02:20:19;25.48;;;12.02;;
48367;SDS011;34173;47.446;18.912;2023-01-16T02:23:05;24.90;;;12.50;;
48367;SDS011;34173;47.446;18.912;2023-01-16T02:34:19;24.67;;;12.27;;
48367;SDS011;34173;47.446;18.912;2023-01-16T02:55:50;37.00;;;17.35;;
48367;SDS011;34173;47.446;18.912;2023-01-16T02:58:21;36.15;;;16.73;;
48367;SDS011;34173;47.446;18.912;2023-01-16T03:00:49;35.35;;;16.90;;
48367;SDS011;34173;47.446;18.912;2023-01-16T03:06:16;35.95;;;16.35;;
48367;SDS011;34173;47.446;18.912;2023-01-16T03:11:19;34.05;;;16.75;;
48367;SDS011;34173;47.446;18.912;2023-01-16T03:13:55;31.73;;;15.95;;
48367;SDS011;34173;47.446;18.912;2023-01-16T03:16:30;32.85;;;16.17;;
48367;SDS011;34173;47.446;18.912;2023-01-16T03:22:07;31.65;;;16.02;;
48367;SDS011;34173;47.446;18.912;2023-01-16T03:30:26;32.15;;;15.52;;
48367;SDS011;34173;47.446;18.912;2023-01-16T03:32:59;32.80;;;15.50;;
48367;SDS011;34173;47.446;18.912;2023-01-16T03:35:29;32.65;;;14.75;;
48367;SDS011;34173;47.446;18.912;2023-01-16T03:38:02;30.02;;;14.95;;
48367;SDS011;34173;47.446;18.912;2023-01-16T03:40:33;31.62;;;14.30;;
48367;SDS011;34173;47.446;18.912;2023-01-16T03:43:14;29.67;;;14.90;;
48367;SDS011;34173;47.446;18.912;2023-01-16T03:51:18;29.87;;;16.15;;
48367;SDS011;34173;47.446;18.912;2023-01-16T03:54:15;28.83;;;14.05;;
48367;SDS011;34173;47.446;18.912;2023-01-16T03:59:12;29.23;;;15.60;;
48367;SDS011;34173;47.446;18.912;2023-01-16T04:01:53;29.17;;;15.02;;
48367;SDS011;34173;47.446;18.912;2023-01-16T04:07:09;29.77;;;15.70;;
48367;SDS011;34173;47.446;18.912;2023-01-16T04:09:46;34.17;;;16.27;;
48367;SDS011;34173;47.446;18.912;2023-01-16T04:12:15;34.17;;;16.87;;
48367;SDS011;34173;47.446;18.912;2023-01-16T04:14:48;34.20;;;15.30;;
48367;SDS011;34173;47.446;18.912;2023-01-16T04:17:19;32.60;;;16.55;;
48367;SDS011;34173;47.446;18.912;2023-01-16T04:19:47;33.03;;;15.93;;
48367;SDS011;34173;47.446;18.912;2023-01-16T04:22:24;35.10;;;15.93;;
48367;SDS011;34173;47.446;18.912;2023-01-16T04:24:55;29.55;;;14.60;;
48367;SDS011;34173;47.446;18.912;2023-01-16T04:27:23;30.95;;;14.75;;
48367;SDS011;34173;47.446;18.912;2023-01-16T04:29:51;31.25;;;15.55;;
48367;SDS011;34173;47.446;18.912;2023-01-16T04:32:19;31.23;;;15.52;;
48367;SDS011;34173;47.446;18.912;2023-01-16T04:34:46;31.70;;;15.55;;
48367;SDS011;34173;47.446;18.912;2023-01-16T04:37:15;30.95;;;15.35;;
48367;SDS011;34173;47.446;18.912;2023-01-16T04:39:43;31.08;;;15.18;;
48367;SDS011;34173;47.446;18.912;2023-01-16T04:42:11;29.67;;;15.40;;
48367;SDS011;34173;47.446;18.912;2023-01-16T04:44:38;33.60;;;15.30;;
48367;SDS011;34173;47.446;18.912;2023-01-16T04:47:06;27.13;;;13.55;;
48367;SDS011;34173;47.446;18.912;2023-01-16T04:49:34;31.45;;;14.13;;
48367;SDS011;34173;47.446;18.912;2023-01-16T04:52:01;25.60;;;12.93;;
48367;SDS011;34173;47.446;18.912;2023-01-16T04:54:29;32.75;;;14.80;;
48367;SDS011;34173;47.446;18.912;2023-01-16T04:56:56;28.08;;;13.55;;
48367;SDS011;34173;47.446;18.912;2023-01-16T04:59:24;25.85;;;13.25;;
48367;SDS011;34173;47.446;18.912;2023-01-16T05:01:52;27.92;;;13.35;;
48367;SDS011;34173;47.446;18.912;2023-01-16T05:04:19;27.02;;;13.45;;
48367;SDS011;34173;47.446;18.912;2023-01-16T05:06:48;26.75;;;13.18;;
48367;SDS011;34173;47.446;18.912;2023-01-16T05:09:16;24.55;;;12.37;;
48367;SDS011;34173;47.446;18.912;2023-01-16T05:11:52;28.15;;;14.70;;
48367;SDS011;34173;47.446;18.912;2023-01-16T05:14:19;29.90;;;14.07;;
48367;SDS011;34173;47.446;18.912;2023-01-16T05:16:47;28.60;;;14.38;;
48367;SDS011;34173;47.446;18.912;2023-01-16T05:19:14;33.67;;;15.07;;
48367;SDS011;34173;47.446;18.912;2023-01-16T05:21:42;29.55;;;13.52;;
48367;SDS011;34173;47.446;18.912;2023-01-16T05:24:09;28.05;;;14.70;;
48367;SDS011;34173;47.446;18.912;2023-01-16T05:26:37;30.55;;;17.70;;
48367;SDS011;34173;47.446;18.912;2023-01-16T05:29:04;31.85;;;18.05;;
48367;SDS011;34173;47.446;18.912;2023-01-16T05:31:32;29.55;;;15.75;;
48367;SDS011;34173;47.446;18.912;2023-01-16T05:33:59;26.48;;;14.02;;
48367;SDS011;34173;47.446;18.912;2023-01-16T05:36:27;26.20;;;14.18;;
48367;SDS011;34173;47.446;18.912;2023-01-16T05:38:54;22.75;;;13.88;;
48367;SDS011;34173;47.446;18.912;2023-01-16T05:41:22;26.60;;;12.57;;
48367;SDS011;34173;47.446;18.912;2023-01-16T05:43:50;27.02;;;13.73;;
48367;SDS011;34173;47.446;18.912;2023-01-16T05:46:17;27.45;;;13.95;;
48367;SDS011;34173;47.446;18.912;2023-01-16T05:48:45;23.87;;;12.88;;
48367;SDS011;34173;47.446;18.912;2023-01-16T05:51:13;25.58;;;13.68;;
48367;SDS011;34173;47.446;18.912;2023-01-16T05:53:40;23.90;;;12.80;;
48367;SDS011;34173;47.446;18.912;2023-01-16T05:56:08;28.75;;;14.27;;
48367;SDS011;34173;47.446;18.912;2023-01-16T05:58:37;23.55;;;13.00;;
48367;SDS011;34173;47.446;18.912;2023-01-16T06:01:04;26.02;;;13.32;;
48367;SDS011;34173;47.446;18.912;2023-01-16T06:03:32;30.10;;;14.43;;
48367;SDS011;34173;47.446;18.912;2023-01-16T06:06:00;24.30;;;12.93;;
48367;SDS011;34173;47.446;18.912;2023-01-16T06:08:28;26.08;;;11.45;;
48367;SDS011;34173;47.446;18.912;2023-01-16T06:10:56;22.62;;;12.23;;
48367;SDS011;34173;47.446;18.912;2023-01-16T06:13:24;22.05;;;11.15;;
48367;SDS011;34173;47.446;18.912;2023-01-16T06:15:51;20.98;;;11.80;;
48367;SDS011;34173;47.446;18.912;2023-01-16T06:18:19;21.75;;;11.48;;
48367;SDS011;34173;47.446;18.912;2023-01-16T06:20:46;24.33;;;11.93;;
48367;SDS011;34173;47.446;18.912;2023-01-16T06:23:14;23.85;;;12.52;;
48367;SDS011;34173;47.446;18.912;2023-01-16T06:25:41;29.27;;;12.63;;
48367;SDS011;34173;47.446;18.912;2023-01-16T06:28:09;20.62;;;11.93;;
48367;SDS011;34173;47.446;18.912;2023-01-16T06:30:36;23.35;;;11.75;;
48367;SDS011;34173;47.446;18.912;2023-01-16T06:33:04;27.15;;;13.60;;
48367;SDS011;34173;47.446;18.912;2023-01-16T06:35:33;24.20;;;12.57;;
48367;SDS011;34173;47.446;18.912;2023-01-16T06:38:00;24.90;;;12.27;;
48367;SDS011;34173;47.446;18.912;2023-01-16T06:40:28;24.58;;;12.37;;
48367;SDS011;34173;47.446;18.912;2023-01-16T06:42:55;22.37;;;12.23;;
48367;SDS011;34173;47.446;18.912;2023-01-16T06:45:23;24.17;;;12.18;;
48367;SDS011;34173;47.446;18.912;2023-01-16T06:47:51;25.48;;;12.55;;
48367;SDS011;34173;47.446;18.912;2023-01-16T06:50:19;21.62;;;11.35;;
48367;SDS011;34173;47.446;18.912;2023-01-16T06:52:47;20.30;;;11.27;;
48367;SDS011;34173;47.446;18.912;2023-01-16T06:55:15;19.70;;;11.57;;
48367;SDS011;34173;47.446;18.912;2023-01-16T06:57:44;21.35;;;11.15;;
48367;SDS011;34173;47.446;18.912;2023-01-16T07:00:12;19.27;;;10.95;;
48367;SDS011;34173;47.446;18.912;2023-01-16T07:02:41;21.50;;;11.60;;
48367;SDS011;34173;47.446;18.912;2023-01-16T07:05:08;21.45;;;11.68;;
48367;SDS011;34173;47.446;18.912;2023-01-16T07:07:37;23.65;;;12.80;;
48367;SDS011;34173;47.446;18.912;2023-01-16T07:10:05;22.17;;;11.85;;
48367;SDS011;34173;47.446;18.912;2023-01-16T07:12:32;23.25;;;12.73;;
48367;SDS011;34173;47.446;18.912;2023-01-16T07:15:00;26.73;;;13.90;;
48367;SDS011;34173;47.446;18.912;2023-01-16T07:17:46;26.15;;;13.50;;
48367;SDS011;34173;47.446;18.912;2023-01-16T07:20:32;27.70;;;14.35;;
48367;SDS011;34173;47.446;18.912;2023-01-16T07:23:20;27.52;;;12.77;;
48367;SDS011;34173;47.446;18.912;2023-01-16T07:25:49;27.87;;;15.95;;
48367;SDS011;34173;47.446;18.912;2023-01-16T07:28:20;27.83;;;14.70;;
48367;SDS011;34173;47.446;18.912;2023-01-16T07:30:48;28.70;;;15.95;;
48367;SDS011;34173;47.446;18.912;2023-01-16T07:33:16;27.90;;;15.27;;
48367;SDS011;34173;47.446;18.912;2023-01-16T07:35:44;29.35;;;16.60;;
48367;SDS011;34173;47.446;18.912;2023-01-16T07:38:12;32.35;;;17.30;;
48367;SDS011;34173;47.446;18.912;2023-01-16T07:40:40;35.97;;;20.58;;
48367;SDS011;34173;47.446;18.912;2023-01-16T07:43:07;47.35;;;27.37;;
48367;SDS011;34173;47.446;18.912;2023-01-16T07:45:35;55.90;;;32.80;;
48367;SDS011;34173;47.446;18.912;2023-01-16T07:48:02;60.88;;;34.55;;
48367;SDS011;34173;47.446;18.912;2023-01-16T07:50:30;53.40;;;29.52;;
48367;SDS011;34173;47.446;18.912;2023-01-16T07:52:58;46.85;;;27.45;;
48367;SDS011;34173;47.446;18.912;2023-01-16T07:55:25;52.72;;;29.10;;
48367;SDS011;34173;47.446;18.912;2023-01-16T07:57:53;35.72;;;20.08;;
48367;SDS011;34173;47.446;18.912;2023-01-16T08:00:21;38.17;;;18.37;;
48367;SDS011;34173;47.446;18.912;2023-01-16T08:02:49;36.70;;;18.50;;
48367;SDS011;34173;47.446;18.912;2023-01-16T08:05:16;46.22;;;25.90;;
48367;SDS011;34173;47.446;18.912;2023-01-16T08:07:44;39.35;;;19.98;;
48367;SDS011;34173;47.446;18.912;2023-01-16T08:10:14;37.03;;;19.55;;
48367;SDS011;34173;47.446;18.912;2023-01-16T08:12:41;34.75;;;18.62;;
48367;SDS011;34173;47.446;18.912;2023-01-16T08:15:09;36.88;;;18.92;;
48367;SDS011;34173;47.446;18.912;2023-01-16T08:17:38;37.75;;;18.40;;
48367;SDS011;34173;47.446;18.912;2023-01-16T08:20:07;38.67;;;19.55;;
48367;SDS011;34173;47.446;18.912;2023-01-16T08:22:41;36.65;;;16.85;;
48367;SDS011;34173;47.446;18.912;2023-01-16T08:25:13;37.45;;;18.45;;
48367;SDS011;34173;47.446;18.912;2023-01-16T08:27:41;33.30;;;18.00;;
48367;SDS011;34173;47.446;18.912;2023-01-16T08:30:09;28.87;;;15.55;;
48367;SDS011;34173;47.446;18.912;2023-01-16T08:32:37;28.95;;;16.60;;
48367;SDS011;34173;47.446;18.912;2023-01-16T08:35:05;29.70;;;15.48;;
48367;SDS011;34173;47.446;18.912;2023-01-16T08:37:33;23.60;;;13.43;;
48367;SDS011;34173;47.446;18.912;2023-01-16T08:40:01;24.40;;;13.80;;
48367;SDS011;34173;47.446;18.912;2023-01-16T08:42:30;23.10;;;12.52;;
48367;SDS011;34173;47.446;18.912;2023-01-16T08:45:17;26.33;;;13.23;;
48367;SDS011;34173;47.446;18.912;2023-01-16T08:48:03;27.33;;;13.23;;
48367;SDS011;34173;47.446;18.912;2023-01-16T08:50:49;26.33;;;13.18;;
48367;SDS011;34173;47.446;18.912;2023-01-16T08:53:36;24.87;;;13.25;;
48367;SDS011;34173;47.446;18.912;2023-01-16T08:56:03;26.48;;;13.48;;
48367;SDS011;34173;47.446;18.912;2023-01-16T08:58:31;24.00;;;13.13;;
48367;SDS011;34173;47.446;18.912;2023-01-16T09:00:59;31.55;;;13.75;;
48367;SDS011;34173;47.446;18.912;2023-01-16T09:03:29;35.78;;;17.48;;
48367;SDS011;34173;47.446;18.912;2023-01-16T09:05:56;49.55;;;24.92;;
48367;SDS011;34173;47.446;18.912;2023-01-16T09:08:24;41.58;;;20.95;;
48367;SDS011;34173;47.446;18.912;2023-01-16T09:10:51;52.95;;;29.30;;
48367;SDS011;34173;47.446;18.912;2023-01-16T09:13:45;28.80;;;15.70;;
48367;SDS011;34173;47.446;18.912;2023-01-16T09:16:17;48.42;;;25.73;;
48367;SDS011;34173;47.446;18.912;2023-01-16T09:18:46;38.33;;;23.55;;
48367;SDS011;34173;47.446;18.912;2023-01-16T09:21:14;39.08;;;22.08;;
48367;SDS011;34173;47.446;18.912;2023-01-16T09:23:42;39.85;;;23.30;;
48367;SDS011;34173;47.446;18.912;2023-01-16T09:26:10;33.33;;;18.33;;
48367;SDS011;34173;47.446;18.912;2023-01-16T09:28:37;37.20;;;20.83;;
48367;SDS011;34173;47.446;18.912;2023-01-16T09:31:05;32.40;;;18.20;;
48367;SDS011;34173;47.446;18.912;2023-01-16T09:33:33;47.58;;;29.00;;
48367;SDS011;34173;47.446;18.912;2023-01-16T09:36:00;31.92;;;17.98;;
48367;SDS011;34173;47.446;18.912;2023-01-16T09:38:28;26.67;;;14.52;;
48367;SDS011;34173;47.446;18.912;2023-01-16T09:40:56;29.80;;;15.02;;
48367;SDS011;34173;47.446;18.912;2023-01-16T09:51:32;27.58;;;14.35;;
48367;SDS011;34173;47.446;18.912;2023-01-16T09:54:19;29.30;;;15.20;;
48367;SDS011;34173;47.446;18.912;2023-01-16T09:57:09;28.48;;;14.13;;
48367;SDS011;34173;47.446;18.912;2023-01-16T09:59:58;28.00;;;14.52;;
48367;SDS011;34173;47.446;18.912;2023-01-16T10:02:30;28.87;;;15.05;;
48367;SDS011;34173;47.446;18.912;2023-01-16T10:05:00;26.95;;;14.93;;
48367;SDS011;34173;47.446;18.912;2023-01-16T10:24:08;27.50;;;13.93;;
48367;SDS011;34173;47.446;18.912;2023-01-16T10:34:57;31.98;;;14.50;;
48367;SDS011;34173;47.446;18.912;2023-01-16T10:37:31;30.00;;;14.35;;
48367;SDS011;34173;47.446;18.912;2023-01-16T10:40:00;28.65;;;15.02;;
48367;SDS011;34173;47.446;18.912;2023-01-16T10:42:38;29.67;;;14.18;;
48367;SDS011;34173;47.446;18.912;2023-01-16T10:45:28;33.50;;;15.68;;
48367;SDS011;34173;47.446;18.912;2023-01-16T10:48:16;29.45;;;13.65;;
48367;SDS011;34173;47.446;18.912;2023-01-16T10:51:02;32.85;;;15.27;;
48367;SDS011;34173;47.446;18.912;2023-01-16T10:53:30;31.27;;;15.13;;
48367;SDS011;34173;47.446;18.912;2023-01-16T10:55:59;29.23;;;14.77;;
48367;SDS011;34173;47.446;18.912;2023-01-16T10:58:34;31.35;;;15.20;;
48367;SDS011;34173;47.446;18.912;2023-01-16T11:01:11;29.05;;;14.75;;
48367;SDS011;34173;47.446;18.912;2023-01-16T11:06:23;30.15;;;14.75;;
48367;SDS011;34173;47.446;18.912;2023-01-16T11:08:52;30.10;;;15.40;;
48367;SDS011;34173;47.446;18.912;2023-01-16T11:11:22;32.17;;;15.77;;
48367;SDS011;34173;47.446;18.912;2023-01-16T11:14:12;32.10;;;15.77;;
48367;SDS011;34173;47.446;18.912;2023-01-16T11:17:20;31.55;;;15.18;;
48367;SDS011;34173;47.446;18.912;2023-01-16T11:20:20;34.45;;;15.40;;
48367;SDS011;34173;47.446;18.912;2023-01-16T11:25:48;43.10;;;20.40;;
48367;SDS011;34173;47.446;18.912;2023-01-16T11:28:22;31.90;;;16.77;;
48367;SDS011;34173;47.446;18.912;2023-01-16T11:30:53;33.05;;;16.05;;
48367;SDS011;34173;47.446;18.912;2023-01-16T11:33:24;32.45;;;17.45;;
48367;SDS011;34173;47.446;18.912;2023-01-16T11:35:56;31.23;;;16.08;;
48367;SDS011;34173;47.446;18.912;2023-01-16T11:38:26;31.08;;;15.32;;
48367;SDS011;34173;47.446;18.912;2023-01-16T11:40:55;32.63;;;15.77;;
48367;SDS011;34173;47.446;18.912;2023-01-16T11:43:24;36.08;;;16.33;;
48367;SDS011;34173;47.446;18.912;2023-01-16T11:49:04;31.20;;;15.57;;
48367;SDS011;34173;47.446;18.912;2023-01-16T11:51:42;30.02;;;14.70;;
48367;SDS011;34173;47.446;18.912;2023-01-16T11:54:15;29.63;;;14.38;;
48367;SDS011;34173;47.446;18.912;2023-01-16T12:39:44;33.25;;;16.65;;
48367;SDS011;34173;47.446;18.912;2023-01-16T12:53:22;38.33;;;20.20;;
48367;SDS011;34173;47.446;18.912;2023-01-16T12:55:58;37.30;;;18.75;;
48367;SDS011;34173;47.446;18.912;2023-01-16T12:58:47;41.03;;;20.77;;
48367;SDS011;34173;47.446;18.912;2023-01-16T13:01:19;34.30;;;16.15;;
48367;SDS011;34173;47.446;18.912;2023-01-16T13:04:00;39.10;;;21.23;;
48367;SDS011;34173;47.446;18.912;2023-01-16T13:06:35;35.53;;;17.30;;
48367;SDS011;34173;47.446;18.912;2023-01-16T13:09:04;30.92;;;15.50;;
48367;SDS011;34173;47.446;18.912;2023-01-16T13:11:38;31.25;;;16.58;;
48367;SDS011;34173;47.446;18.912;2023-01-16T13:14:34;33.60;;;15.73;;
48367;SDS011;34173;47.446;18.912;2023-01-16T13:17:12;29.95;;;14.60;;
48367;SDS011;34173;47.446;18.912;2023-01-16T13:19:56;32.88;;;15.65;;
48367;SDS011;34173;47.446;18.912;2023-01-16T13:22:26;29.35;;;14.70;;
48367;SDS011;34173;47.446;18.912;2023-01-16T13:25:09;32.15;;;14.87;;
48367;SDS011;34173;47.446;18.912;2023-01-16T13:27:47;34.05;;;15.48;;
48367;SDS011;34173;47.446;18.912;2023-01-16T13:30:18;34.90;;;17.25;;
48367;SDS011;34173;47.446;18.912;2023-01-16T13:32:54;31.75;;;15.68;;
48367;SDS011;34173;47.446;18.912;2023-01-16T13:40:38;35.40;;;17.33;;
48367;SDS011;34173;47.446;18.912;2023-01-16T13:43:30;34.35;;;17.02;;
48367;SDS011;34173;47.446;18.912;2023-01-16T13:46:19;33.67;;;16.37;;
48367;SDS011;34173;47.446;18.912;2023-01-16T13:48:54;34.58;;;17.65;;
48367;SDS011;34173;47.446;18.912;2023-01-16T13:51:24;39.22;;;18.00;;
48367;SDS011;34173;47.446;18.912;2023-01-16T13:53:54;35.60;;;17.98;;
48367;SDS011;34173;47.446;18.912;2023-01-16T13:56:26;33.65;;;17.30;;
48367;SDS011;34173;47.446;18.912;2023-01-16T13:58:54;33.05;;;17.15;;
48367;SDS011;34173;47.446;18.912;2023-01-16T14:04:09;33.90;;;18.23;;
48367;SDS011;34173;47.446;18.912;2023-01-16T14:06:50;37.58;;;19.27;;
48367;SDS011;34173;47.446;18.912;2023-01-16T14:13:14;35.30;;;17.62;;
48367;SDS011;34173;47.446;18.912;2023-01-16T14:15:49;34.85;;;18.70;;
48367;SDS011;34173;47.446;18.912;2023-01-16T14:18:36;36.75;;;18.35;;
48367;SDS011;34173;47.446;18.912;2023-01-16T14:21:16;36.97;;;18.25;;
48367;SDS011;34173;47.446;18.912;2023-01-16T14:23:50;38.58;;;18.55;;
48367;SDS011;34173;47.446;18.912;2023-01-16T14:29:14;33.88;;;17.50;;
48367;SDS011;34173;47.446;18.912;2023-01-16T14:32:00;34.42;;;18.00;;
48367;SDS011;34173;47.446;18.912;2023-01-16T14:34:40;37.58;;;18.48;;
48367;SDS011;34173;47.446;18.912;2023-01-16T14:40:01;34.72;;;17.35;;
48367;SDS011;34173;47.446;18.912;2023-01-16T14:42:44;31.87;;;17.85;;
48367;SDS011;34173;47.446;18.912;2023-01-16T14:45:35;33.50;;;17.75;;
48367;SDS011;34173;47.446;18.912;2023-01-16T14:48:30;38.45;;;19.50;;
48367;SDS011;34173;47.446;18.912;2023-01-16T14:51:24;35.55;;;17.27;;
48367;SDS011;34173;47.446;18.912;2023-01-16T14:54:23;36.88;;;18.73;;
48367;SDS011;34173;47.446;18.912;2023-01-16T14:57:16;35.05;;;18.08;;
48367;SDS011;34173;47.446;18.912;2023-01-16T14:59:49;32.78;;;18.05;;
48367;SDS011;34173;47.446;18.912;2023-01-16T15:02:26;33.20;;;17.55;;
48367;SDS011;34173;47.446;18.912;2023-01-16T15:10:00;34.60;;;18.48;;
48367;SDS011;34173;47.446;18.912;2023-01-16T15:12:42;34.78;;;17.90;;
48367;SDS011;34173;47.446;18.912;2023-01-16T15:15:29;34.17;;;17.20;;
48367;SDS011;34173;47.446;18.912;2023-01-16T15:17:58;31.65;;;16.55;;
48367;SDS011;34173;47.446;18.912;2023-01-16T15:20:45;32.67;;;16.67;;
48367;SDS011;34173;47.446;18.912;2023-01-16T15:23:35;32.78;;;17.02;;
48367;SDS011;34173;47.446;18.912;2023-01-16T15:28:34;31.52;;;16.75;;
48367;SDS011;34173;47.446;18.912;2023-01-16T15:31:06;30.37;;;15.68;;
48367;SDS011;34173;47.446;18.912;2023-01-16T15:33:36;27.08;;;14.85;;
48367;SDS011;34173;47.446;18.912;2023-01-16T15:38:54;31.10;;;15.13;;
48367;SDS011;34173;47.446;18.912;2023-01-16T15:41:25;25.92;;;15.02;;
48367;SDS011;34173;47.446;18.912;2023-01-16T15:44:14;26.77;;;15.52;;
48367;SDS011;34173;47.446;18.912;2023-01-16T15:49:45;28.40;;;14.45;;
48367;SDS011;34173;47.446;18.912;2023-01-16T15:52:16;29.15;;;15.23;;
48367;SDS011;34173;47.446;18.912;2023-01-16T15:54:44;25.37;;;15.40;;
48367;SDS011;34173;47.446;18.912;2023-01-16T15:57:15;28.50;;;16.23;;
48367;SDS011;34173;47.446;18.912;2023-01-16T15:59:50;25.02;;;13.95;;
48367;SDS011;34173;47.446;18.912;2023-01-16T16:02:20;28.80;;;15.98;;
48367;SDS011;34173;47.446;18.912;2023-01-16T16:04:56;31.42;;;16.27;;
48367;SDS011;34173;47.446;18.912;2023-01-16T16:07:26;30.80;;;15.10;;
48367;SDS011;34173;47.446;18.912;2023-01-16T16:09:56;29.67;;;15.90;;
48367;SDS011;34173;47.446;18.912;2023-01-16T16:12:25;31.33;;;16.58;;
48367;SDS011;34173;47.446;18.912;2023-01-16T16:18:07;31.05;;;17.00;;
48367;SDS011;34173;47.446;18.912;2023-01-16T16:20:40;33.15;;;17.70;;
48367;SDS011;34173;47.446;18.912;2023-01-16T16:25:48;28.08;;;15.52;;
48367;SDS011;34173;47.446;18.912;2023-01-16T16:28:18;31.20;;;15.25;;
48367;SDS011;34173;47.446;18.912;2023-01-16T16:30:54;31.02;;;14.98;;
48367;SDS011;34173;47.446;18.912;2023-01-16T16:33:23;30.12;;;14.60;;
48367;SDS011;34173;47.446;18.912;2023-01-16T16:35:53;31.17;;;15.68;;
48367;SDS011;34173;47.446;18.912;2023-01-16T16:38:23;28.52;;;15.93;;
48367;SDS011;34173;47.446;18.912;2023-01-16T16:43:45;31.52;;;16.90;;
48367;SDS011;34173;47.446;18.912;2023-01-16T16:48:55;32.50;;;17.37;;
48367;SDS011;34173;47.446;18.912;2023-01-16T16:51:29;31.80;;;17.42;;
48367;SDS011;34173;47.446;18.912;2023-01-16T16:54:10;33.08;;;16.37;;
48367;SDS011;34173;47.446;18.912;2023-01-16T16:56:44;29.58;;;16.35;;
48367;SDS011;34173;47.446;18.912;2023-01-16T16:59:15;32.03;;;17.45;;
48367;SDS011;34173;47.446;18.912;2023-01-16T17:01:46;29.58;;;16.62;;
48367;SDS011;34173;47.446;18.912;2023-01-16T17:04:16;32.40;;;16.85;;
48367;SDS011;34173;47.446;18.912;2023-01-16T17:06:45;32.38;;;17.58;;
48367;SDS011;34173;47.446;18.912;2023-01-16T17:09:14;35.45;;;18.37;;
48367;SDS011;34173;47.446;18.912;2023-01-16T17:11:46;37.50;;;17.48;;
48367;SDS011;34173;47.446;18.912;2023-01-16T17:14:14;39.70;;;18.98;;
48367;SDS011;34173;47.446;18.912;2023-01-16T17:16:42;42.53;;;20.20;;
48367;SDS011;34173;47.446;18.912;2023-01-16T17:21:49;45.80;;;21.60;;
48367;SDS011;34173;47.446;18.912;2023-01-16T17:24:18;42.25;;;20.88;;
48367;SDS011;34173;47.446;18.912;2023-01-16T17:26:46;48.10;;;22.48;;
48367;SDS011;34173;47.446;18.912;2023-01-16T17:29:14;53.63;;;24.73;;
48367;SDS011;34173;47.446;18.912;2023-01-16T17:31:45;45.80;;;21.87;;
48367;SDS011;34173;47.446;18.912;2023-01-16T17:34:17;37.75;;;19.45;;
48367;SDS011;34173;47.446;18.912;2023-01-16T17:36:47;39.97;;;20.80;;
48367;SDS011;34173;47.446;18.912;2023-01-16T17:39:19;44.33;;;21.87;;
48367;SDS011;34173;47.446;18.912;2023-01-16T17:41:47;39.35;;;20.52;;
48367;SDS011;34173;47.446;18.912;2023-01-16T17:44:15;42.20;;;21.90;;
48367;SDS011;34173;47.446;18.912;2023-01-16T17:47:03;37.47;;;20.20;;
48367;SDS011;34173;47.446;18.912;2023-01-16T17:49:32;43.60;;;21.73;;
48367;SDS011;34173;47.446;18.912;2023-01-16T17:52:20;38.75;;;20.73;;
48367;SDS011;34173;47.446;18.912;2023-01-16T17:54:49;42.38;;;21.80;;
48367;SDS011;34173;47.446;18.912;2023-01-16T17:57:37;37.92;;;20.88;;